sensor_id;sensor_type;location;lat;lon;timestamp;P1;durP1;ratioP1;P2;durP2;ratioP2
1993;SDS011;998;49.906;10.908;2022-08-04T00:01:03;5.70;;;4.07;;
1993;SDS011;998;49.906;10.908;2022-08-04T00:03:36;9.80;;;4.03;;
1993;SDS011;998;49.906;10.908;2022-08-04T00:06:11;7.50;;;3.40;;
1993;SDS011;998;49.906;10.908;2022-08-04T00:08:43;5.23;;;4.00;;
1993;SDS011;998;49.906;10.908;2022-08-04T00:11:14;4.83;;;3.00;;
1993;SDS011;998;49.906;10.908;2022-08-04T00:13:47;5.53;;;3.83;;
1993;SDS011;998;49.906;10.908;2022-08-04T00:16:19;4.80;;;3.70;;
1993;SDS011;998;49.906;10.908;2022-08-04T00:18:49;3.93;;;3.13;;
1993;SDS011;998;49.906;10.908;2022-08-04T00:21:23;6.93;;;4.30;;
1993;SDS011;998;49.906;10.908;2022-08-04T00:23:51;6.70;;;5.00;;
1993;SDS011;998;49.906;10.908;2022-08-04T00:26:20;9.43;;;5.23;;
1993;SDS011;998;49.906;10.908;2022-08-04T00:28:47;8.07;;;4.60;;
1993;SDS011;998;49.906;10.908;2022-08-04T00:31:14;5.13;;;3.40;;
1993;SDS011;998;49.906;10.908;2022-08-04T00:33:42;5.00;;;3.53;;
1993;SDS011;998;49.906;10.908;2022-08-04T00:36:10;4.80;;;3.67;;
1993;SDS011;998;49.906;10.908;2022-08-04T00:38:40;5.57;;;3.87;;
1993;SDS011;998;49.906;10.908;2022-08-04T00:41:12;8.17;;;3.83;;
1993;SDS011;998;49.906;10.908;2022-08-04T00:43:49;7.80;;;3.90;;
1993;SDS011;998;49.906;10.908;2022-08-04T00:46:33;5.80;;;4.17;;
1993;SDS011;998;49.906;10.908;2022-08-04T00:49:31;14.33;;;4.00;;
1993;SDS011;998;49.906;10.908;2022-08-04T00:52:32;4.90;;;3.63;;
1993;SDS011;998;49.906;10.908;2022-08-04T00:55:18;5.83;;;3.50;;
1993;SDS011;998;49.906;10.908;2022-08-04T00:58:02;6.70;;;4.40;;
1993;SDS011;998;49.906;10.908;2022-08-04T01:00:46;6.33;;;4.07;;
1993;SDS011;998;49.906;10.908;2022-08-04T01:03:21;6.03;;;4.70;;
1993;SDS011;998;49.906;10.908;2022-08-04T01:05:56;7.40;;;4.50;;
1993;SDS011;998;49.906;10.908;2022-08-04T01:08:45;7.50;;;4.40;;
1993;SDS011;998;49.906;10.908;2022-08-04T01:11:23;5.53;;;4.37;;
1993;SDS011;998;49.906;10.908;2022-08-04T01:14:06;4.47;;;3.87;;
1993;SDS011;998;49.906;10.908;2022-08-04T01:16:46;13.00;;;5.60;;
1993;SDS011;998;49.906;10.908;2022-08-04T01:19:19;8.53;;;4.53;;
1993;SDS011;998;49.906;10.908;2022-08-04T01:22:16;5.40;;;3.73;;
1993;SDS011;998;49.906;10.908;2022-08-04T01:24:50;6.10;;;4.20;;
1993;SDS011;998;49.906;10.908;2022-08-04T01:27:41;5.47;;;4.27;;
1993;SDS011;998;49.906;10.908;2022-08-04T01:30:18;9.70;;;4.50;;
1993;SDS011;998;49.906;10.908;2022-08-04T01:32:46;10.63;;;4.40;;
1993;SDS011;998;49.906;10.908;2022-08-04T01:35:18;5.10;;;4.20;;
1993;SDS011;998;49.906;10.908;2022-08-04T01:37:53;7.50;;;4.10;;
1993;SDS011;998;49.906;10.908;2022-08-04T01:40:26;7.43;;;4.67;;
1993;SDS011;998;49.906;10.908;2022-08-04T01:42:54;8.87;;;4.50;;
1993;SDS011;998;49.906;10.908;2022-08-04T01:45:25;6.73;;;4.50;;
1993;SDS011;998;49.906;10.908;2022-08-04T01:47:55;9.60;;;4.50;;
1993;SDS011;998;49.906;10.908;2022-08-04T01:50:23;9.67;;;5.30;;
1993;SDS011;998;49.906;10.908;2022-08-04T01:52:52;7.80;;;4.30;;
1993;SDS011;998;49.906;10.908;2022-08-04T01:55:20;7.33;;;4.07;;
1993;SDS011;998;49.906;10.908;2022-08-04T01:57:49;9.30;;;4.27;;
1993;SDS011;998;49.906;10.908;2022-08-04T02:00:18;5.70;;;4.37;;
1993;SDS011;998;49.906;10.908;2022-08-04T02:02:47;9.60;;;4.87;;
1993;SDS011;998;49.906;10.908;2022-08-04T02:05:15;9.97;;;5.63;;
1993;SDS011;998;49.906;10.908;2022-08-04T02:07:49;5.60;;;4.70;;
1993;SDS011;998;49.906;10.908;2022-08-04T02:10:32;8.10;;;4.57;;
1993;SDS011;998;49.906;10.908;2022-08-04T02:13:10;6.10;;;4.40;;
1993;SDS011;998;49.906;10.908;2022-08-04T02:15:46;10.70;;;4.37;;
1993;SDS011;998;49.906;10.908;2022-08-04T02:18:26;7.70;;;5.00;;
1993;SDS011;998;49.906;10.908;2022-08-04T02:20:57;7.47;;;4.50;;
1993;SDS011;998;49.906;10.908;2022-08-04T02:23:30;6.13;;;4.53;;
1993;SDS011;998;49.906;10.908;2022-08-04T02:26:02;7.13;;;4.57;;
1993;SDS011;998;49.906;10.908;2022-08-04T02:28:37;10.33;;;5.43;;
1993;SDS011;998;49.906;10.908;2022-08-04T02:31:21;7.70;;;4.80;;
1993;SDS011;998;49.906;10.908;2022-08-04T02:33:58;6.97;;;4.63;;
1993;SDS011;998;49.906;10.908;2022-08-04T02:36:33;16.10;;;5.10;;
1993;SDS011;998;49.906;10.908;2022-08-04T02:39:03;7.03;;;4.40;;
1993;SDS011;998;49.906;10.908;2022-08-04T02:41:32;9.70;;;5.70;;
1993;SDS011;998;49.906;10.908;2022-08-04T02:44:00;5.83;;;4.30;;
1993;SDS011;998;49.906;10.908;2022-08-04T02:46:28;6.40;;;4.23;;
1993;SDS011;998;49.906;10.908;2022-08-04T02:48:58;7.30;;;4.80;;
1993;SDS011;998;49.906;10.908;2022-08-04T02:51:28;10.80;;;4.97;;
1993;SDS011;998;49.906;10.908;2022-08-04T02:54:00;7.50;;;4.70;;
1993;SDS011;998;49.906;10.908;2022-08-04T02:56:30;7.13;;;5.13;;
1993;SDS011;998;49.906;10.908;2022-08-04T02:58:58;6.60;;;4.80;;
1993;SDS011;998;49.906;10.908;2022-08-04T03:01:27;11.47;;;4.00;;
1993;SDS011;998;49.906;10.908;2022-08-04T03:04:08;5.43;;;4.20;;
1993;SDS011;998;49.906;10.908;2022-08-04T03:06:50;7.03;;;4.33;;
1993;SDS011;998;49.906;10.908;2022-08-04T03:09:40;8.00;;;3.70;;
1993;SDS011;998;49.906;10.908;2022-08-04T03:12:49;4.40;;;3.63;;
1993;SDS011;998;49.906;10.908;2022-08-04T03:24:49;8.07;;;3.70;;
1993;SDS011;998;49.906;10.908;2022-08-04T03:30:42;4.80;;;2.90;;
1993;SDS011;998;49.906;10.908;2022-08-04T03:33:38;4.70;;;2.90;;
1993;SDS011;998;49.906;10.908;2022-08-04T03:36:37;4.00;;;2.90;;
1993;SDS011;998;49.906;10.908;2022-08-04T03:42:42;3.40;;;2.53;;
1993;SDS011;998;49.906;10.908;2022-08-04T03:45:45;4.80;;;3.20;;
1993;SDS011;998;49.906;10.908;2022-08-04T03:51:46;8.63;;;3.10;;
1993;SDS011;998;49.906;10.908;2022-08-04T03:54:52;5.50;;;3.70;;
1993;SDS011;998;49.906;10.908;2022-08-04T03:57:53;5.53;;;3.40;;
1993;SDS011;998;49.906;10.908;2022-08-04T04:00:38;5.27;;;2.87;;
1993;SDS011;998;49.906;10.908;2022-08-04T04:03:22;4.83;;;3.00;;
1993;SDS011;998;49.906;10.908;2022-08-04T04:06:14;4.63;;;3.40;;
1993;SDS011;998;49.906;10.908;2022-08-04T04:09:26;4.93;;;3.20;;
1993;SDS011;998;49.906;10.908;2022-08-04T04:12:13;5.07;;;3.27;;
1993;SDS011;998;49.906;10.908;2022-08-04T04:15:05;4.43;;;3.23;;
1993;SDS011;998;49.906;10.908;2022-08-04T04:20:52;8.13;;;3.10;;
1993;SDS011;998;49.906;10.908;2022-08-04T04:23:31;6.40;;;3.43;;
1993;SDS011;998;49.906;10.908;2022-08-04T04:26:27;10.73;;;3.40;;
1993;SDS011;998;49.906;10.908;2022-08-04T04:29:13;5.70;;;2.90;;
1993;SDS011;998;49.906;10.908;2022-08-04T04:32:08;13.00;;;3.53;;
1993;SDS011;998;49.906;10.908;2022-08-04T04:34:51;6.00;;;3.10;;
1993;SDS011;998;49.906;10.908;2022-08-04T04:37:44;10.50;;;3.30;;
1993;SDS011;998;49.906;10.908;2022-08-04T04:40:33;6.97;;;3.00;;
1993;SDS011;998;49.906;10.908;2022-08-04T04:43:21;5.40;;;3.33;;
1993;SDS011;998;49.906;10.908;2022-08-04T04:46:15;5.90;;;3.43;;
1993;SDS011;998;49.906;10.908;2022-08-04T04:48:57;9.87;;;3.43;;
1993;SDS011;998;49.906;10.908;2022-08-04T04:51:32;5.80;;;2.80;;
1993;SDS011;998;49.906;10.908;2022-08-04T04:54:05;5.83;;;3.43;;
1993;SDS011;998;49.906;10.908;2022-08-04T04:56:39;6.00;;;3.60;;
1993;SDS011;998;49.906;10.908;2022-08-04T04:59:12;7.50;;;3.80;;
1993;SDS011;998;49.906;10.908;2022-08-04T05:01:52;12.40;;;3.43;;
1993;SDS011;998;49.906;10.908;2022-08-04T05:10:45;9.30;;;5.17;;
1993;SDS011;998;49.906;10.908;2022-08-04T05:13:30;9.07;;;3.60;;
1993;SDS011;998;49.906;10.908;2022-08-04T05:16:01;5.30;;;3.17;;
1993;SDS011;998;49.906;10.908;2022-08-04T05:18:35;8.07;;;3.70;;
1993;SDS011;998;49.906;10.908;2022-08-04T05:21:08;6.80;;;4.00;;
1993;SDS011;998;49.906;10.908;2022-08-04T05:23:46;7.63;;;4.03;;
1993;SDS011;998;49.906;10.908;2022-08-04T05:26:17;12.87;;;3.83;;
1993;SDS011;998;49.906;10.908;2022-08-04T05:28:47;9.30;;;3.83;;
1993;SDS011;998;49.906;10.908;2022-08-04T05:31:19;10.83;;;4.00;;
1993;SDS011;998;49.906;10.908;2022-08-04T05:33:50;6.93;;;3.70;;
1993;SDS011;998;49.906;10.908;2022-08-04T05:36:23;5.10;;;3.40;;
1993;SDS011;998;49.906;10.908;2022-08-04T05:38:55;6.13;;;3.57;;
1993;SDS011;998;49.906;10.908;2022-08-04T05:41:27;5.70;;;3.30;;
1993;SDS011;998;49.906;10.908;2022-08-04T05:43:54;7.93;;;3.30;;
1993;SDS011;998;49.906;10.908;2022-08-04T05:46:22;5.00;;;3.40;;
1993;SDS011;998;49.906;10.908;2022-08-04T05:48:51;5.60;;;3.30;;
1993;SDS011;998;49.906;10.908;2022-08-04T05:51:18;5.70;;;3.47;;
1993;SDS011;998;49.906;10.908;2022-08-04T05:53:47;5.43;;;3.30;;
1993;SDS011;998;49.906;10.908;2022-08-04T05:56:15;4.80;;;3.10;;
1993;SDS011;998;49.906;10.908;2022-08-04T05:58:43;10.60;;;3.60;;
1993;SDS011;998;49.906;10.908;2022-08-04T06:01:12;5.90;;;3.27;;
1993;SDS011;998;49.906;10.908;2022-08-04T06:03:42;6.37;;;3.77;;
1993;SDS011;998;49.906;10.908;2022-08-04T06:06:11;4.40;;;3.30;;
1993;SDS011;998;49.906;10.908;2022-08-04T06:08:39;6.10;;;3.77;;
1993;SDS011;998;49.906;10.908;2022-08-04T06:11:08;5.87;;;2.97;;
1993;SDS011;998;49.906;10.908;2022-08-04T06:13:39;4.63;;;3.30;;
1993;SDS011;998;49.906;10.908;2022-08-04T06:16:08;5.10;;;3.00;;
1993;SDS011;998;49.906;10.908;2022-08-04T06:18:38;7.63;;;3.00;;
1993;SDS011;998;49.906;10.908;2022-08-04T06:21:09;7.00;;;3.60;;
1993;SDS011;998;49.906;10.908;2022-08-04T06:23:38;5.33;;;2.97;;
1993;SDS011;998;49.906;10.908;2022-08-04T06:26:08;5.83;;;3.80;;
1993;SDS011;998;49.906;10.908;2022-08-04T06:28:42;6.13;;;4.10;;
1993;SDS011;998;49.906;10.908;2022-08-04T06:31:11;7.93;;;3.60;;
1993;SDS011;998;49.906;10.908;2022-08-04T06:33:46;9.10;;;4.53;;
1993;SDS011;998;49.906;10.908;2022-08-04T06:36:14;9.40;;;4.07;;
1993;SDS011;998;49.906;10.908;2022-08-04T06:38:41;12.40;;;4.60;;
1993;SDS011;998;49.906;10.908;2022-08-04T06:41:10;6.13;;;3.23;;
1993;SDS011;998;49.906;10.908;2022-08-04T06:43:37;6.57;;;3.20;;
1993;SDS011;998;49.906;10.908;2022-08-04T06:46:04;9.93;;;4.00;;
1993;SDS011;998;49.906;10.908;2022-08-04T06:48:33;12.63;;;3.43;;
1993;SDS011;998;49.906;10.908;2022-08-04T06:51:01;5.23;;;3.60;;
1993;SDS011;998;49.906;10.908;2022-08-04T06:53:29;4.50;;;2.97;;
1993;SDS011;998;49.906;10.908;2022-08-04T06:55:56;4.00;;;2.80;;
1993;SDS011;998;49.906;10.908;2022-08-04T06:58:27;10.00;;;4.10;;
1993;SDS011;998;49.906;10.908;2022-08-04T07:00:56;5.70;;;3.20;;
1993;SDS011;998;49.906;10.908;2022-08-04T07:03:26;5.47;;;3.40;;
1993;SDS011;998;49.906;10.908;2022-08-04T07:05:54;6.00;;;3.03;;
1993;SDS011;998;49.906;10.908;2022-08-04T07:08:21;14.83;;;3.10;;
1993;SDS011;998;49.906;10.908;2022-08-04T07:10:48;7.07;;;3.67;;
1993;SDS011;998;49.906;10.908;2022-08-04T07:13:17;5.40;;;3.20;;
1993;SDS011;998;49.906;10.908;2022-08-04T07:15:47;5.57;;;3.50;;
1993;SDS011;998;49.906;10.908;2022-08-04T07:18:14;6.50;;;3.57;;
1993;SDS011;998;49.906;10.908;2022-08-04T07:20:42;7.87;;;2.93;;
1993;SDS011;998;49.906;10.908;2022-08-04T07:23:10;4.27;;;2.83;;
1993;SDS011;998;49.906;10.908;2022-08-04T07:25:41;7.03;;;2.87;;
1993;SDS011;998;49.906;10.908;2022-08-04T07:28:09;4.03;;;2.67;;
1993;SDS011;998;49.906;10.908;2022-08-04T07:30:35;7.37;;;3.27;;
1993;SDS011;998;49.906;10.908;2022-08-04T07:33:07;4.57;;;3.00;;
1993;SDS011;998;49.906;10.908;2022-08-04T07:35:35;7.00;;;4.77;;
1993;SDS011;998;49.906;10.908;2022-08-04T07:38:03;7.50;;;2.80;;
1993;SDS011;998;49.906;10.908;2022-08-04T07:40:30;6.20;;;2.73;;
1993;SDS011;998;49.906;10.908;2022-08-04T07:42:58;6.37;;;2.70;;
1993;SDS011;998;49.906;10.908;2022-08-04T07:45:25;6.13;;;2.63;;
1993;SDS011;998;49.906;10.908;2022-08-04T07:47:55;4.10;;;3.10;;
1993;SDS011;998;49.906;10.908;2022-08-04T07:50:26;8.83;;;3.73;;
1993;SDS011;998;49.906;10.908;2022-08-04T07:52:54;5.63;;;3.10;;
1993;SDS011;998;49.906;10.908;2022-08-04T07:55:21;7.70;;;3.00;;
1993;SDS011;998;49.906;10.908;2022-08-04T07:57:48;3.87;;;2.50;;
1993;SDS011;998;49.906;10.908;2022-08-04T08:00:15;5.73;;;3.10;;
1993;SDS011;998;49.906;10.908;2022-08-04T08:02:43;8.00;;;3.50;;
1993;SDS011;998;49.906;10.908;2022-08-04T08:05:13;9.00;;;3.20;;
1993;SDS011;998;49.906;10.908;2022-08-04T08:07:45;11.80;;;3.87;;
1993;SDS011;998;49.906;10.908;2022-08-04T08:10:12;7.50;;;3.70;;
1993;SDS011;998;49.906;10.908;2022-08-04T08:12:40;4.53;;;2.40;;
1993;SDS011;998;49.906;10.908;2022-08-04T08:15:08;4.20;;;2.27;;
1993;SDS011;998;49.906;10.908;2022-08-04T08:17:36;4.30;;;2.10;;
1993;SDS011;998;49.906;10.908;2022-08-04T08:20:05;3.60;;;2.30;;
1993;SDS011;998;49.906;10.908;2022-08-04T08:22:34;5.80;;;2.50;;
1993;SDS011;998;49.906;10.908;2022-08-04T08:25:03;5.17;;;2.57;;
1993;SDS011;998;49.906;10.908;2022-08-04T08:27:30;7.13;;;1.70;;
1993;SDS011;998;49.906;10.908;2022-08-04T08:29:58;6.50;;;2.10;;
1993;SDS011;998;49.906;10.908;2022-08-04T08:32:25;3.90;;;2.73;;
1993;SDS011;998;49.906;10.908;2022-08-04T08:34:52;9.00;;;2.73;;
1993;SDS011;998;49.906;10.908;2022-08-04T08:37:21;8.47;;;3.53;;
1993;SDS011;998;49.906;10.908;2022-08-04T08:39:57;5.47;;;2.83;;
1993;SDS011;998;49.906;10.908;2022-08-04T08:42:51;3.27;;;2.07;;
1993;SDS011;998;49.906;10.908;2022-08-04T08:51:44;3.63;;;2.10;;
1993;SDS011;998;49.906;10.908;2022-08-04T08:54:25;4.50;;;2.13;;
1993;SDS011;998;49.906;10.908;2022-08-04T09:00:16;4.90;;;2.60;;
1993;SDS011;998;49.906;10.908;2022-08-04T09:05:56;5.40;;;2.43;;
1993;SDS011;998;49.906;10.908;2022-08-04T09:08:45;3.83;;;2.00;;
1993;SDS011;998;49.906;10.908;2022-08-04T09:11:21;3.57;;;2.40;;
1993;SDS011;998;49.906;10.908;2022-08-04T09:13:53;6.03;;;2.90;;
1993;SDS011;998;49.906;10.908;2022-08-04T09:16:27;3.37;;;2.43;;
1993;SDS011;998;49.906;10.908;2022-08-04T09:19:01;3.10;;;2.00;;
1993;SDS011;998;49.906;10.908;2022-08-04T09:21:36;3.60;;;2.30;;
1993;SDS011;998;49.906;10.908;2022-08-04T09:24:07;12.50;;;3.03;;
1993;SDS011;998;49.906;10.908;2022-08-04T09:26:41;5.83;;;2.40;;
1993;SDS011;998;49.906;10.908;2022-08-04T09:29:13;3.33;;;1.90;;
1993;SDS011;998;49.906;10.908;2022-08-04T09:31:48;6.43;;;2.30;;
1993;SDS011;998;49.906;10.908;2022-08-04T09:34:23;3.80;;;2.40;;
1993;SDS011;998;49.906;10.908;2022-08-04T09:37:00;3.20;;;1.60;;
1993;SDS011;998;49.906;10.908;2022-08-04T09:39:39;9.70;;;2.10;;
1993;SDS011;998;49.906;10.908;2022-08-04T09:42:16;4.20;;;2.10;;
1993;SDS011;998;49.906;10.908;2022-08-04T09:44:51;4.07;;;2.00;;
1993;SDS011;998;49.906;10.908;2022-08-04T09:47:25;5.70;;;2.33;;
1993;SDS011;998;49.906;10.908;2022-08-04T09:49:57;2.90;;;1.80;;
1993;SDS011;998;49.906;10.908;2022-08-04T09:52:31;8.40;;;2.50;;
1993;SDS011;998;49.906;10.908;2022-08-04T09:55:11;5.23;;;1.90;;
1993;SDS011;998;49.906;10.908;2022-08-04T09:57:47;4.43;;;2.13;;
1993;SDS011;998;49.906;10.908;2022-08-04T10:00:21;3.80;;;2.70;;
1993;SDS011;998;49.906;10.908;2022-08-04T10:02:54;3.10;;;2.10;;
1993;SDS011;998;49.906;10.908;2022-08-04T10:05:24;4.80;;;2.63;;
1993;SDS011;998;49.906;10.908;2022-08-04T10:08:01;3.17;;;2.20;;
1993;SDS011;998;49.906;10.908;2022-08-04T10:10:44;4.80;;;2.50;;
1993;SDS011;998;49.906;10.908;2022-08-04T10:13:23;4.80;;;2.20;;
1993;SDS011;998;49.906;10.908;2022-08-04T10:16:06;3.30;;;2.47;;
1993;SDS011;998;49.906;10.908;2022-08-04T10:18:47;3.50;;;2.37;;
1993;SDS011;998;49.906;10.908;2022-08-04T10:21:29;4.90;;;2.77;;
1993;SDS011;998;49.906;10.908;2022-08-04T10:24:08;3.23;;;2.23;;
1993;SDS011;998;49.906;10.908;2022-08-04T10:26:46;4.80;;;2.60;;
1993;SDS011;998;49.906;10.908;2022-08-04T10:29:18;3.50;;;2.00;;
1993;SDS011;998;49.906;10.908;2022-08-04T10:31:53;4.40;;;2.60;;
1993;SDS011;998;49.906;10.908;2022-08-04T10:34:27;3.70;;;2.03;;
1993;SDS011;998;49.906;10.908;2022-08-04T10:37:00;4.33;;;2.30;;
1993;SDS011;998;49.906;10.908;2022-08-04T10:39:32;3.13;;;2.40;;
1993;SDS011;998;49.906;10.908;2022-08-04T10:42:09;4.50;;;2.40;;
1993;SDS011;998;49.906;10.908;2022-08-04T10:44:50;4.90;;;2.07;;
1993;SDS011;998;49.906;10.908;2022-08-04T10:47:29;5.07;;;2.30;;
1993;SDS011;998;49.906;10.908;2022-08-04T10:50:01;4.67;;;2.00;;
1993;SDS011;998;49.906;10.908;2022-08-04T10:52:35;5.70;;;2.33;;
1993;SDS011;998;49.906;10.908;2022-08-04T10:55:10;3.40;;;2.13;;
1993;SDS011;998;49.906;10.908;2022-08-04T10:57:41;4.47;;;1.83;;
1993;SDS011;998;49.906;10.908;2022-08-04T11:00:13;3.30;;;2.27;;
1993;SDS011;998;49.906;10.908;2022-08-04T11:02:45;3.40;;;2.00;;
1993;SDS011;998;49.906;10.908;2022-08-04T11:05:19;3.97;;;2.20;;
1993;SDS011;998;49.906;10.908;2022-08-04T11:07:55;3.10;;;1.90;;
1993;SDS011;998;49.906;10.908;2022-08-04T11:10:28;3.20;;;1.90;;
1993;SDS011;998;49.906;10.908;2022-08-04T11:13:00;7.30;;;2.40;;
1993;SDS011;998;49.906;10.908;2022-08-04T11:15:35;2.90;;;2.13;;
1993;SDS011;998;49.906;10.908;2022-08-04T11:18:05;3.60;;;2.53;;
1993;SDS011;998;49.906;10.908;2022-08-04T11:20:41;5.33;;;1.90;;
1993;SDS011;998;49.906;10.908;2022-08-04T11:23:12;3.97;;;2.60;;
1993;SDS011;998;49.906;10.908;2022-08-04T11:25:43;3.87;;;2.53;;
1993;SDS011;998;49.906;10.908;2022-08-04T11:28:18;3.20;;;2.50;;
1993;SDS011;998;49.906;10.908;2022-08-04T11:30:52;2.70;;;1.90;;
1993;SDS011;998;49.906;10.908;2022-08-04T11:33:26;8.50;;;2.87;;
1993;SDS011;998;49.906;10.908;2022-08-04T11:36:10;3.73;;;2.10;;
1993;SDS011;998;49.906;10.908;2022-08-04T11:38:46;3.40;;;2.10;;
1993;SDS011;998;49.906;10.908;2022-08-04T11:41:18;6.97;;;2.37;;
1993;SDS011;998;49.906;10.908;2022-08-04T11:43:49;3.30;;;2.50;;
1993;SDS011;998;49.906;10.908;2022-08-04T11:46:22;3.40;;;2.30;;
1993;SDS011;998;49.906;10.908;2022-08-04T11:48:55;4.07;;;2.07;;
1993;SDS011;998;49.906;10.908;2022-08-04T11:51:27;2.90;;;2.10;;
1993;SDS011;998;49.906;10.908;2022-08-04T11:53:56;4.97;;;2.00;;
1993;SDS011;998;49.906;10.908;2022-08-04T11:56:24;3.50;;;2.23;;
1993;SDS011;998;49.906;10.908;2022-08-04T11:58:52;5.53;;;3.23;;
1993;SDS011;998;49.906;10.908;2022-08-04T12:01:22;4.53;;;3.00;;
1993;SDS011;998;49.906;10.908;2022-08-04T12:04:01;3.70;;;2.47;;
1993;SDS011;998;49.906;10.908;2022-08-04T12:06:35;3.07;;;1.90;;
1993;SDS011;998;49.906;10.908;2022-08-04T12:09:10;5.07;;;2.93;;
1993;SDS011;998;49.906;10.908;2022-08-04T12:11:47;3.23;;;2.33;;
1993;SDS011;998;49.906;10.908;2022-08-04T12:14:25;4.17;;;2.37;;
1993;SDS011;998;49.906;10.908;2022-08-04T12:16:59;5.10;;;2.10;;
1993;SDS011;998;49.906;10.908;2022-08-04T12:19:31;8.40;;;2.70;;
1993;SDS011;998;49.906;10.908;2022-08-04T12:22:07;3.53;;;2.30;;
1993;SDS011;998;49.906;10.908;2022-08-04T12:24:37;4.73;;;2.10;;
1993;SDS011;998;49.906;10.908;2022-08-04T12:27:11;3.50;;;2.50;;
1993;SDS011;998;49.906;10.908;2022-08-04T12:29:41;3.90;;;2.80;;
1993;SDS011;998;49.906;10.908;2022-08-04T12:32:12;2.90;;;2.10;;
1993;SDS011;998;49.906;10.908;2022-08-04T12:34:47;4.30;;;2.40;;
1993;SDS011;998;49.906;10.908;2022-08-04T12:37:25;3.10;;;2.10;;
1993;SDS011;998;49.906;10.908;2022-08-04T12:40:00;4.30;;;2.60;;
1993;SDS011;998;49.906;10.908;2022-08-04T12:42:33;3.30;;;2.00;;
1993;SDS011;998;49.906;10.908;2022-08-04T12:45:06;3.80;;;2.13;;
1993;SDS011;998;49.906;10.908;2022-08-04T12:47:35;3.70;;;2.30;;
1993;SDS011;998;49.906;10.908;2022-08-04T12:50:04;3.33;;;2.13;;
1993;SDS011;998;49.906;10.908;2022-08-04T12:52:41;4.23;;;2.40;;
1993;SDS011;998;49.906;10.908;2022-08-04T12:55:09;7.43;;;2.40;;
1993;SDS011;998;49.906;10.908;2022-08-04T12:57:38;3.03;;;2.20;;
1993;SDS011;998;49.906;10.908;2022-08-04T13:00:07;2.97;;;2.13;;
1993;SDS011;998;49.906;10.908;2022-08-04T13:02:36;4.13;;;2.50;;
1993;SDS011;998;49.906;10.908;2022-08-04T13:05:08;3.87;;;2.53;;
1993;SDS011;998;49.906;10.908;2022-08-04T13:07:39;2.80;;;1.90;;
1993;SDS011;998;49.906;10.908;2022-08-04T13:10:10;4.30;;;2.00;;
1993;SDS011;998;49.906;10.908;2022-08-04T13:12:38;3.93;;;2.23;;
1993;SDS011;998;49.906;10.908;2022-08-04T13:15:08;5.10;;;2.10;;
1993;SDS011;998;49.906;10.908;2022-08-04T13:17:41;3.90;;;1.97;;
1993;SDS011;998;49.906;10.908;2022-08-04T13:20:13;4.40;;;2.70;;
1993;SDS011;998;49.906;10.908;2022-08-04T13:22:42;4.40;;;2.50;;
1993;SDS011;998;49.906;10.908;2022-08-04T13:25:09;3.80;;;2.10;;
1993;SDS011;998;49.906;10.908;2022-08-04T13:27:36;3.07;;;2.07;;
1993;SDS011;998;49.906;10.908;2022-08-04T13:30:07;3.83;;;2.47;;
1993;SDS011;998;49.906;10.908;2022-08-04T13:32:38;3.40;;;1.90;;
1993;SDS011;998;49.906;10.908;2022-08-04T13:35:06;6.63;;;2.13;;
1993;SDS011;998;49.906;10.908;2022-08-04T13:37:35;5.10;;;2.43;;
1993;SDS011;998;49.906;10.908;2022-08-04T13:40:07;3.47;;;2.17;;
1993;SDS011;998;49.906;10.908;2022-08-04T13:42:37;8.77;;;2.23;;
1993;SDS011;998;49.906;10.908;2022-08-04T13:45:05;3.40;;;1.93;;
1993;SDS011;998;49.906;10.908;2022-08-04T13:47:35;5.53;;;1.90;;
1993;SDS011;998;49.906;10.908;2022-08-04T13:50:09;9.70;;;2.30;;
1993;SDS011;998;49.906;10.908;2022-08-04T13:52:40;3.13;;;1.90;;
1993;SDS011;998;49.906;10.908;2022-08-04T13:55:09;3.00;;;2.00;;
1993;SDS011;998;49.906;10.908;2022-08-04T13:57:49;3.90;;;2.30;;
1993;SDS011;998;49.906;10.908;2022-08-04T14:00:18;3.20;;;2.37;;
1993;SDS011;998;49.906;10.908;2022-08-04T14:02:47;4.30;;;2.27;;
1993;SDS011;998;49.906;10.908;2022-08-04T14:05:26;4.47;;;2.20;;
1993;SDS011;998;49.906;10.908;2022-08-04T14:07:54;3.30;;;2.10;;
1993;SDS011;998;49.906;10.908;2022-08-04T14:10:27;2.73;;;1.90;;
1993;SDS011;998;49.906;10.908;2022-08-04T14:12:55;5.57;;;2.30;;
1993;SDS011;998;49.906;10.908;2022-08-04T14:15:29;3.00;;;2.23;;
1993;SDS011;998;49.906;10.908;2022-08-04T14:20:59;4.17;;;2.00;;
1993;SDS011;998;49.906;10.908;2022-08-04T14:23:28;6.90;;;2.10;;
1993;SDS011;998;49.906;10.908;2022-08-04T14:26:13;3.67;;;2.20;;
1993;SDS011;998;49.906;10.908;2022-08-04T14:28:42;4.10;;;2.07;;
1993;SDS011;998;49.906;10.908;2022-08-04T14:31:09;4.00;;;2.00;;
1993;SDS011;998;49.906;10.908;2022-08-04T14:33:38;5.20;;;2.00;;
1993;SDS011;998;49.906;10.908;2022-08-04T14:36:06;3.73;;;2.17;;
1993;SDS011;998;49.906;10.908;2022-08-04T14:38:43;2.70;;;1.70;;
1993;SDS011;998;49.906;10.908;2022-08-04T14:41:18;3.20;;;1.80;;
1993;SDS011;998;49.906;10.908;2022-08-04T14:43:47;4.27;;;1.50;;
1993;SDS011;998;49.906;10.908;2022-08-04T14:46:16;3.70;;;2.10;;
1993;SDS011;998;49.906;10.908;2022-08-04T14:51:41;6.60;;;2.73;;
1993;SDS011;998;49.906;10.908;2022-08-04T14:54:09;3.00;;;1.60;;
1993;SDS011;998;49.906;10.908;2022-08-04T14:56:39;2.90;;;1.90;;
1993;SDS011;998;49.906;10.908;2022-08-04T14:59:07;4.80;;;1.70;;
1993;SDS011;998;49.906;10.908;2022-08-04T15:01:37;5.90;;;1.97;;
1993;SDS011;998;49.906;10.908;2022-08-04T15:04:05;3.50;;;2.10;;
1993;SDS011;998;49.906;10.908;2022-08-04T15:06:34;4.37;;;1.87;;
1993;SDS011;998;49.906;10.908;2022-08-04T15:09:04;2.90;;;1.80;;
1993;SDS011;998;49.906;10.908;2022-08-04T15:11:33;3.23;;;1.93;;
1993;SDS011;998;49.906;10.908;2022-08-04T15:14:02;3.87;;;2.20;;
1993;SDS011;998;49.906;10.908;2022-08-04T15:16:30;6.07;;;2.20;;
1993;SDS011;998;49.906;10.908;2022-08-04T15:18:58;4.70;;;2.37;;
1993;SDS011;998;49.906;10.908;2022-08-04T15:21:26;6.73;;;2.20;;
1993;SDS011;998;49.906;10.908;2022-08-04T15:23:54;4.60;;;2.07;;
1993;SDS011;998;49.906;10.908;2022-08-04T15:26:24;8.23;;;1.93;;
1993;SDS011;998;49.906;10.908;2022-08-04T15:28:56;2.90;;;2.03;;
1993;SDS011;998;49.906;10.908;2022-08-04T15:31:30;3.40;;;2.00;;
1993;SDS011;998;49.906;10.908;2022-08-04T15:34:03;2.80;;;1.90;;
1993;SDS011;998;49.906;10.908;2022-08-04T15:36:33;4.77;;;2.10;;
1993;SDS011;998;49.906;10.908;2022-08-04T15:39:05;4.93;;;2.07;;
1993;SDS011;998;49.906;10.908;2022-08-04T15:41:39;11.60;;;2.47;;
1993;SDS011;998;49.906;10.908;2022-08-04T15:44:17;4.73;;;2.10;;
1993;SDS011;998;49.906;10.908;2022-08-04T15:47:12;3.10;;;2.03;;
1993;SDS011;998;49.906;10.908;2022-08-04T15:49:40;3.00;;;1.90;;
1993;SDS011;998;49.906;10.908;2022-08-04T15:52:08;3.43;;;1.80;;
1993;SDS011;998;49.906;10.908;2022-08-04T15:54:36;3.10;;;2.30;;
1993;SDS011;998;49.906;10.908;2022-08-04T15:57:03;3.20;;;1.90;;
1993;SDS011;998;49.906;10.908;2022-08-04T16:02:38;3.23;;;1.90;;
1993;SDS011;998;49.906;10.908;2022-08-04T16:08:00;2.90;;;1.93;;
1993;SDS011;998;49.906;10.908;2022-08-04T16:10:36;9.10;;;2.10;;
1993;SDS011;998;49.906;10.908;2022-08-04T16:13:05;3.13;;;2.10;;
1993;SDS011;998;49.906;10.908;2022-08-04T16:15:37;3.20;;;2.23;;
1993;SDS011;998;49.906;10.908;2022-08-04T16:18:09;3.17;;;1.80;;
1993;SDS011;998;49.906;10.908;2022-08-04T16:20:37;3.90;;;2.37;;
1993;SDS011;998;49.906;10.908;2022-08-04T16:23:15;3.90;;;2.47;;
1993;SDS011;998;49.906;10.908;2022-08-04T16:25:55;2.83;;;2.00;;
1993;SDS011;998;49.906;10.908;2022-08-04T16:28:38;5.33;;;2.23;;
1993;SDS011;998;49.906;10.908;2022-08-04T16:31:07;5.37;;;2.00;;
1993;SDS011;998;49.906;10.908;2022-08-04T16:33:37;3.00;;;1.63;;
1993;SDS011;998;49.906;10.908;2022-08-04T16:36:05;2.90;;;1.80;;
1993;SDS011;998;49.906;10.908;2022-08-04T16:41:37;3.57;;;1.90;;
1993;SDS011;998;49.906;10.908;2022-08-04T16:46:56;4.50;;;2.93;;
1993;SDS011;998;49.906;10.908;2022-08-04T16:49:26;3.83;;;2.20;;
1993;SDS011;998;49.906;10.908;2022-08-04T16:51:54;5.20;;;2.27;;
1993;SDS011;998;49.906;10.908;2022-08-04T16:54:27;3.43;;;2.43;;